<?xml version="1.0" encoding="utf-8"?>
<gpx xmlns:xsi="http://www.w3.org/2001/XMLSchema-instance" xmlns:xsd="http://www.w3.org/2001/XMLSchema" version="1.1" creator="Shapelink.com" xmlns="http://www.topografix.com/GPX/1/1" xmlns:gpxtpx="http://www.garmin.com/xmlschemas/TrackPointExtension/v1">
  <metadata>
    <name>Natación 1.04 km, 2015-06-22</name>
    <desc></desc>
    <author><name>Henrik Amren</name></author> 
    <time>2015-06-22T17:15:18Z</time>
  </metadata>
  <trk>
    <name>Natación 1.04 km, 2015-06-22</name>
    <trkseg>
      <trkpt lat="39.836884369137" lon="3.126561101279">
        <ele>0</ele>
        <time>2015-06-22T17:15:18Z</time>
      </trkpt>
      <trkpt lat="39.836532580794" lon="3.126955050579">
        <ele>0</ele>
        <time>2015-06-22T17:16:25Z</time>
      </trkpt>
      <trkpt lat="39.837007583067" lon="3.127016573725">
        <ele>0</ele>
        <time>2015-06-22T17:17:45Z</time>
      </trkpt>
      <trkpt lat="39.837421816565" lon="3.127561229587">
        <ele>0</ele>
        <time>2015-06-22T17:18:48Z</time>
      </trkpt>
      <trkpt lat="39.83778852469" lon="3.128250892319">
        <ele>0</ele>
        <time>2015-06-22T17:20:17Z</time>
      </trkpt>
      <trkpt lat="39.837992623955" lon="3.128580384808">
        <ele>0</ele>
        <time>2015-06-22T17:20:44Z</time>
      </trkpt>
      <trkpt lat="39.838240560557" lon="3.128944662182">
        <ele>0</ele>
        <time>2015-06-22T17:21:45Z</time>
      </trkpt>
      <trkpt lat="39.838585727199" lon="3.129416479333">
        <ele>0</ele>
        <time>2015-06-22T17:22:55Z</time>
      </trkpt>
      <trkpt lat="39.838525126062" lon="3.129964320317">
        <ele>0</ele>
        <time>2015-06-22T17:24:00Z</time>
      </trkpt>
      <trkpt lat="39.837442855134" lon="3.128780376942">
        <ele>0</ele>
        <time>2015-06-22T17:25:31Z</time>
      </trkpt>
      <trkpt lat="39.837758601307" lon="3.128884647778">
        <ele>0</ele>
        <time>2015-06-22T17:26:02Z</time>
      </trkpt>
      <trkpt lat="39.837061311046" lon="3.128032795281">
        <ele>0</ele>
        <time>2015-06-22T17:27:00Z</time>
      </trkpt>
      <trkpt lat="39.837389210974" lon="3.127893991017">
        <ele>0</ele>
        <time>2015-06-22T17:28:00Z</time>
      </trkpt>
      <trkpt lat="39.836794682807" lon="3.127518062802">
        <ele>0</ele>
        <time>2015-06-22T17:28:51Z</time>
      </trkpt>
      <trkpt lat="39.836539034857" lon="3.127095279766">
        <ele>0</ele>
        <time>2015-06-22T17:30:05Z</time>
      </trkpt>
      <trkpt lat="39.836216247888" lon="3.126686494503">
        <ele>0</ele>
        <time>2015-06-22T17:31:00Z</time>
      </trkpt>
      <trkpt lat="39.836634923793" lon="3.126178467544">
        <ele>0</ele>
        <time>2015-06-22T17:32:02Z</time>
      </trkpt>
      <trkpt lat="39.837020239736" lon="3.125794827981">
        <ele>0</ele>
        <time>2015-06-22T17:32:48Z</time>
      </trkpt>
      <trkpt lat="39.837424917868" lon="3.125644289057">
        <ele>0</ele>
        <time>2015-06-22T17:33:17Z</time>
      </trkpt>
    </trkseg>
  </trk>
</gpx>